createdAt,value
2019-01-21T00:01:27.065Z,55.10
2019-01-21T00:03:56.305Z,49.50
2019-01-21T00:06:25.407Z,51.73
2019-01-21T00:08:54.513Z,56.37
2019-01-21T00:11:23.623Z,53.48
2019-01-21T00:13:52.725Z,54.95
2019-01-21T00:16:21.855Z,56.95
2019-01-21T00:18:50.969Z,52.60
2019-01-21T00:21:20.113Z,53.35
2019-01-21T00:23:49.199Z,55.95
2019-01-21T00:26:19.345Z,53.58
2019-01-21T00:28:48.459Z,54.03
2019-01-21T00:31:17.580Z,58.75
2019-01-21T00:33:46.705Z,56.88
2019-01-21T00:36:15.807Z,57.40
2019-01-21T00:38:45.023Z,52.65
2019-01-21T00:41:14.837Z,52.40
2019-01-21T00:43:43.983Z,52.13
2019-01-21T00:46:13.163Z,54.33
2019-01-21T00:48:42.297Z,59.03
2019-01-21T00:51:11.404Z,52.48
2019-01-21T00:53:40.529Z,53.40
2019-01-21T00:56:09.643Z,52.33
2019-01-21T00:58:38.773Z,51.05
2019-01-21T01:01:07.861Z,52.58
2019-01-21T01:03:37.043Z,56.15
2019-01-21T01:06:06.138Z,53.33
2019-01-21T01:08:36.559Z,53.68
2019-01-21T01:11:05.855Z,52.40
2019-01-21T01:13:34.965Z,55.03
2019-01-21T01:16:04.537Z,50.75
2019-01-21T01:18:33.638Z,54.93
2019-01-21T01:21:02.762Z,54.15
2019-01-21T01:23:31.886Z,56.40
2019-01-21T01:26:01.010Z,53.42
2019-01-21T01:28:30.119Z,53.83
2019-01-21T01:30:59.244Z,51.48
2019-01-21T01:33:28.357Z,56.20
2019-01-21T01:35:57.486Z,52.00
2019-01-21T01:38:26.614Z,58.58
2019-01-21T01:40:56.977Z,56.63
2019-01-21T01:43:26.231Z,58.20
2019-01-21T01:45:55.345Z,58.28
2019-01-21T01:48:24.471Z,58.40
2019-01-21T01:50:54.913Z,53.60
2019-01-21T01:53:24.139Z,52.43
2019-01-21T01:55:53.462Z,56.00
2019-01-21T01:58:22.622Z,53.92
2019-01-21T02:00:51.713Z,54.58
2019-01-21T02:03:20.906Z,54.93
2019-01-21T02:05:50.435Z,61.58
2019-01-21T02:08:19.543Z,53.23
2019-01-21T02:10:49.086Z,54.80
2019-01-21T02:13:18.204Z,54.03
2019-01-21T02:15:47.327Z,60.83
2019-01-21T02:18:16.436Z,59.53
2019-01-21T02:20:48.454Z,52.98
2019-01-21T02:23:18.440Z,55.75
2019-01-21T02:25:57.775Z,53.92
2019-01-21T02:29:11.800Z,58.10
2019-01-21T02:32:27.404Z,58.25
2019-01-21T02:35:24.315Z,55.83
2019-01-21T02:38:36.635Z,54.00
2019-01-21T02:41:41.755Z,54.75
2019-01-21T02:44:39.666Z,55.55
2019-01-21T02:47:20.244Z,55.23
2019-01-21T02:50:36.421Z,57.78
2019-01-21T02:53:54.570Z,50.73
2019-01-21T02:57:01.182Z,60.28
2019-01-21T02:59:46.228Z,50.60
2019-01-21T03:02:59.358Z,51.25
2019-01-21T03:06:21.936Z,52.62
2019-01-21T03:09:47.378Z,58.70
2019-01-21T03:12:54.620Z,57.03
2019-01-21T03:16:17.150Z,59.77
2019-01-21T03:19:30.258Z,51.75
2019-01-21T03:22:33.326Z,57.88
2019-01-21T03:25:24.908Z,59.53
2019-01-21T03:28:20.130Z,55.48
2019-01-21T03:31:32.352Z,57.05
2019-01-21T03:34:30.043Z,61.92
2019-01-21T03:37:23.109Z,56.90
2019-01-21T03:40:25.469Z,56.63
2019-01-21T03:43:27.578Z,52.13
2019-01-21T03:46:46.588Z,53.42
2019-01-21T03:49:29.517Z,53.08
2019-01-21T03:52:30.130Z,54.95
2019-01-21T03:55:15.403Z,54.70
2019-01-21T03:58:14.784Z,51.65
2019-01-21T04:01:25.447Z,55.38
2019-01-21T04:04:24.226Z,49.88
2019-01-21T04:07:27.982Z,55.55
2019-01-21T04:10:34.309Z,52.13
2019-01-21T04:13:45.559Z,54.75
2019-01-21T04:17:17.442Z,57.05
2019-01-21T04:20:04.458Z,51.92
2019-01-21T04:22:52.013Z,52.35
2019-01-21T04:25:43.215Z,53.65
2019-01-21T04:28:34.017Z,52.88
2019-01-21T04:31:40.443Z,58.17
2019-01-21T04:34:35.539Z,55.92
2019-01-21T04:37:57.901Z,58.08
2019-01-21T04:40:51.711Z,55.03
2019-01-21T04:43:51.727Z,59.58
2019-01-21T04:47:19.930Z,58.20
2019-01-21T04:50:24.816Z,59.70
2019-01-21T04:53:35.617Z,57.53
2019-01-21T04:56:30.413Z,58.55
2019-01-21T04:59:45.304Z,54.70
2019-01-21T05:03:04.417Z,55.12
2019-01-21T05:05:46.083Z,56.25
2019-01-21T05:08:58.074Z,59.53
2019-01-21T05:12:00.886Z,56.90
2019-01-21T05:14:58.624Z,53.78
2019-01-21T05:18:16.142Z,55.85
2019-01-21T05:21:32.331Z,49.08
2019-01-21T05:24:57.698Z,54.70
2019-01-21T05:28:03.651Z,58.42
2019-01-21T05:31:32.789Z,51.20
2019-01-21T05:34:47.677Z,51.30
2019-01-21T05:38:12.126Z,49.53
2019-01-21T05:41:09.554Z,56.05
2019-01-21T05:44:00.109Z,50.75
2019-01-21T05:47:00.077Z,49.60
2019-01-21T05:50:09.345Z,52.23
2019-01-21T05:53:04.804Z,52.93
2019-01-21T05:56:16.994Z,45.88
2019-01-21T05:59:20.462Z,49.42
2019-01-21T06:02:31.998Z,47.58
2019-01-21T06:05:26.364Z,46.58
2019-01-21T06:08:29.341Z,48.40
2019-01-21T06:11:27.070Z,50.52
2019-01-21T06:14:40.642Z,50.52
2019-01-21T06:17:24.027Z,47.50
2019-01-21T06:21:01.682Z,52.38
2019-01-21T06:23:51.569Z,48.15
2019-01-21T06:27:01.104Z,52.43
2019-01-21T06:29:43.340Z,208.60
2019-01-21T06:33:01.659Z,72.92
2019-01-21T06:35:48.829Z,50.45
2019-01-21T06:39:04.289Z,52.38
2019-01-21T06:42:05.929Z,53.08
2019-01-21T06:45:11.171Z,50.20
2019-01-21T06:48:18.662Z,44.67
2019-01-21T06:51:21.215Z,59.63
2019-01-21T06:54:30.192Z,53.45
2019-01-21T06:57:50.359Z,48.38
2019-01-21T07:00:55.287Z,52.55
2019-01-21T07:04:02.858Z,47.30
2019-01-21T07:07:07.397Z,50.67
2019-01-21T07:10:26.523Z,53.10
2019-01-21T07:13:21.842Z,52.08
2019-01-21T07:16:38.280Z,55.75
2019-01-21T07:19:51.525Z,52.23
2019-01-21T07:22:45.867Z,47.83
2019-01-21T07:25:58.673Z,48.73
2019-01-21T07:28:53.987Z,46.55
2019-01-21T07:31:51.023Z,46.37
2019-01-21T07:34:57.119Z,45.25
2019-01-21T07:38:19.342Z,48.50
2019-01-21T07:41:22.478Z,46.33
2019-01-21T07:44:20.403Z,44.80
2019-01-21T07:47:39.513Z,45.92
2019-01-21T07:50:41.011Z,48.15
2019-01-21T07:54:06.400Z,46.23
2019-01-21T07:57:17.788Z,46.23
2019-01-21T08:00:10.651Z,46.90
2019-01-21T08:03:06.638Z,43.65
2019-01-21T08:05:53.618Z,44.33
2019-01-21T08:08:41.985Z,42.60
2019-01-21T08:11:53.365Z,44.90
2019-01-21T08:14:49.649Z,42.98
2019-01-21T08:18:08.619Z,42.75
2019-01-21T08:21:06.138Z,45.25
2019-01-21T08:24:21.148Z,45.12
2019-01-21T08:27:01.548Z,44.35
2019-01-21T08:30:02.455Z,40.33
2019-01-21T08:32:58.986Z,41.40
2019-01-21T08:36:03.882Z,41.85
2019-01-21T08:39:05.947Z,39.65
2019-01-21T08:42:06.073Z,43.17
2019-01-21T08:45:15.621Z,43.23
2019-01-21T08:48:40.757Z,40.03
2019-01-21T08:51:35.807Z,41.95
2019-01-21T08:54:33.193Z,42.48
2019-01-21T08:57:14.007Z,42.95
2019-01-21T09:00:21.351Z,40.00
2019-01-21T09:03:22.735Z,40.70
2019-01-21T09:06:15.317Z,43.00
2019-01-21T09:09:06.938Z,43.35
2019-01-21T09:11:56.931Z,45.92
2019-01-21T09:15:02.961Z,46.33
2019-01-21T09:18:16.943Z,47.05
2019-01-21T09:21:12.218Z,45.00
2019-01-21T09:24:06.903Z,43.65
2019-01-21T09:27:16.217Z,45.52
2019-01-21T09:30:13.053Z,44.30
2019-01-21T09:33:14.389Z,45.40
2019-01-21T09:36:26.467Z,41.55
2019-01-21T09:39:42.944Z,40.05
2019-01-21T09:42:37.015Z,41.00
2019-01-21T09:45:31.589Z,44.80
2019-01-21T09:47:59.147Z,42.48
2019-01-21T09:50:28.603Z,39.92
2019-01-21T09:52:58.309Z,42.78
2019-01-21T09:55:27.949Z,42.00
2019-01-21T09:58:07.432Z,43.98
2019-01-21T10:00:36.553Z,41.42
2019-01-21T10:03:06.231Z,43.70
2019-01-21T10:05:35.421Z,45.03
2019-01-21T10:08:40.153Z,46.75
2019-01-21T10:12:01.122Z,43.35
2019-01-21T10:15:07.439Z,41.65
2019-01-21T10:18:02.054Z,45.05
2019-01-21T10:20:47.771Z,41.90
2019-01-21T10:23:43.384Z,41.60
2019-01-21T10:26:42.026Z,40.43
2019-01-21T10:29:38.024Z,40.75
2019-01-21T10:33:03.509Z,39.27
2019-01-21T10:36:13.462Z,39.33
2019-01-21T10:39:10.704Z,39.48
2019-01-21T10:42:15.730Z,41.23
2019-01-21T10:45:18.168Z,36.28
2019-01-21T10:48:05.134Z,39.23
2019-01-21T10:51:02.958Z,38.65
2019-01-21T10:54:12.998Z,38.80
2019-01-21T10:56:57.380Z,35.48
2019-01-21T10:59:53.870Z,38.20
2019-01-21T11:02:46.824Z,36.10
2019-01-21T11:05:50.054Z,37.30
2019-01-21T11:08:39.478Z,39.58
2019-01-21T11:11:54.075Z,36.55
2019-01-21T11:15:03.948Z,32.40
2019-01-21T11:18:16.975Z,36.03
2019-01-21T11:21:21.940Z,36.77
2019-01-21T11:24:38.438Z,34.40
2019-01-21T11:27:52.517Z,40.38
2019-01-21T11:31:12.237Z,32.13
2019-01-21T11:34:25.624Z,31.80
2019-01-21T11:37:31.880Z,34.27
2019-01-21T11:40:48.528Z,34.15
2019-01-21T11:43:49.752Z,32.35
2019-01-21T11:46:54.885Z,106.58
2019-01-21T11:49:47.812Z,65.65
2019-01-21T11:52:46.399Z,35.50
2019-01-21T11:56:11.723Z,35.35
2019-01-21T11:59:05.778Z,31.23
2019-01-21T12:02:12.227Z,29.98
2019-01-21T12:05:18.510Z,32.58
2019-01-21T12:08:30.680Z,35.50
2019-01-21T12:11:39.217Z,31.23
2019-01-21T12:14:54.722Z,32.50
2019-01-21T12:18:11.496Z,32.67
2019-01-21T12:21:12.608Z,30.70
2019-01-21T12:24:20.941Z,31.20
2019-01-21T12:27:33.514Z,32.63
2019-01-21T12:30:24.748Z,32.10
2019-01-21T12:33:40.778Z,32.05
2019-01-21T12:36:39.886Z,31.23
2019-01-21T12:40:17.480Z,28.35
2019-01-21T12:43:21.350Z,33.15
2019-01-21T12:46:40.605Z,29.95
2019-01-21T12:49:24.503Z,29.30
2019-01-21T12:52:39.539Z,32.70
2019-01-21T12:55:36.422Z,31.20
2019-01-21T12:58:39.634Z,27.35
2019-01-21T13:01:38.138Z,28.67
2019-01-21T13:04:38.684Z,29.82
2019-01-21T13:07:49.414Z,30.32
2019-01-21T13:10:55.858Z,28.05
2019-01-21T13:14:15.534Z,26.55
2019-01-21T13:17:15.670Z,30.15
2019-01-21T13:20:10.769Z,53.80
2019-01-21T13:23:27.538Z,41.60
2019-01-21T13:26:31.962Z,36.45
2019-01-21T13:29:45.010Z,30.75
2019-01-21T13:33:09.413Z,30.52
2019-01-21T13:35:54.687Z,27.32
2019-01-21T13:38:52.458Z,29.72
2019-01-21T13:41:55.202Z,26.48
2019-01-21T13:44:59.918Z,28.05
2019-01-21T13:48:14.366Z,30.82
2019-01-21T13:51:34.151Z,28.60
2019-01-21T13:54:56.619Z,25.52
2019-01-21T13:58:15.462Z,28.55
2019-01-21T14:01:30.741Z,27.15
2019-01-21T14:04:43.913Z,29.70
2019-01-21T14:07:56.206Z,27.80
2019-01-21T14:10:48.193Z,28.07
2019-01-21T14:13:26.497Z,28.15
2019-01-21T14:16:26.790Z,26.42
2019-01-21T14:19:06.526Z,27.17
2019-01-21T14:22:21.967Z,27.67
2019-01-21T14:25:28.400Z,27.10
2019-01-21T14:28:44.439Z,26.52
2019-01-21T14:31:42.509Z,29.45
2019-01-21T14:34:27.064Z,24.72
2019-01-21T14:37:31.872Z,26.02
2019-01-21T14:40:35.719Z,30.00
2019-01-21T14:43:50.961Z,25.55
2019-01-21T14:46:47.895Z,27.45
2019-01-21T14:49:48.325Z,25.70
2019-01-21T14:52:53.594Z,24.50
2019-01-21T14:55:34.964Z,27.13
2019-01-21T14:58:34.130Z,27.07
2019-01-21T15:01:41.163Z,29.00
2019-01-21T15:04:53.642Z,27.67
2019-01-21T15:07:57.863Z,26.60
2019-01-21T15:11:22.512Z,27.95
2019-01-21T15:14:04.137Z,27.35
2019-01-21T15:16:45.030Z,27.35
2019-01-21T15:19:37.327Z,31.90
2019-01-21T15:22:38.779Z,31.23
2019-01-21T15:25:35.471Z,26.55
2019-01-21T15:28:53.874Z,25.70
2019-01-21T15:31:57.794Z,30.60
2019-01-21T15:34:52.584Z,29.60
2019-01-21T15:38:05.003Z,28.73
2019-01-21T15:41:14.171Z,28.52
2019-01-21T15:44:11.413Z,30.05
2019-01-21T15:47:25.610Z,28.60
2019-01-21T15:50:28.711Z,25.65
2019-01-21T15:53:27.655Z,25.85
2019-01-21T15:56:31.461Z,32.03
2019-01-21T15:59:15.159Z,31.90
2019-01-21T16:02:13.448Z,28.95
2019-01-21T16:04:56.894Z,27.85
2019-01-21T16:07:52.189Z,29.55
2019-01-21T16:11:04.065Z,33.28
2019-01-21T16:13:44.425Z,49.95
2019-01-21T16:16:47.603Z,52.95
2019-01-21T16:19:49.951Z,64.67
2019-01-21T16:23:03.471Z,69.05
2019-01-21T16:26:19.944Z,70.03
2019-01-21T16:29:10.222Z,59.45
2019-01-21T16:32:09.288Z,96.92
2019-01-21T16:35:05.515Z,67.08
2019-01-21T16:38:11.074Z,36.48
2019-01-21T16:41:16.093Z,36.73
2019-01-21T16:43:45.340Z,34.50
2019-01-21T16:46:14.497Z,29.95
2019-01-21T16:48:43.648Z,33.33
2019-01-21T16:51:19.983Z,33.13
2019-01-21T16:53:44.611Z,33.65
2019-01-21T16:56:14.697Z,31.15
2019-01-21T16:58:43.850Z,30.02
2019-01-21T17:01:12.949Z,33.88
2019-01-21T17:03:42.137Z,31.30
2019-01-21T17:06:11.430Z,40.28
2019-01-21T17:08:40.666Z,36.65
2019-01-21T17:11:09.788Z,36.05
2019-01-21T17:13:38.956Z,35.35
2019-01-21T17:16:08.066Z,40.50
2019-01-21T17:18:37.239Z,35.30
2019-01-21T17:21:06.499Z,38.58
2019-01-21T17:23:35.698Z,33.80
2019-01-21T17:26:04.920Z,35.80
2019-01-21T17:28:34.032Z,37.05
2019-01-21T17:31:03.562Z,34.73
2019-01-21T17:33:32.759Z,35.85
2019-01-21T17:36:01.900Z,34.00
2019-01-21T17:38:31.101Z,38.23
2019-01-21T17:41:00.330Z,39.65
2019-01-21T17:43:29.449Z,41.88
2019-01-21T17:45:58.584Z,40.15
2019-01-21T17:48:27.725Z,31.82
2019-01-21T17:50:56.938Z,38.78
2019-01-21T17:53:26.078Z,40.17
2019-01-21T17:55:55.580Z,36.15
2019-01-21T17:58:24.770Z,34.70
2019-01-21T18:00:53.994Z,36.08
2019-01-21T18:03:23.176Z,37.78
2019-01-21T18:05:52.518Z,42.50
2019-01-21T18:08:22.352Z,41.00
2019-01-21T18:10:51.556Z,39.35
2019-01-21T18:13:20.816Z,34.00
2019-01-21T18:15:50.015Z,39.65
2019-01-21T18:18:19.248Z,37.00
2019-01-21T18:20:48.842Z,33.98
2019-01-21T18:23:18.038Z,35.28
2019-01-21T18:25:47.271Z,37.53
2019-01-21T18:28:16.562Z,49.85
2019-01-21T18:30:45.898Z,41.48
2019-01-21T18:33:16.296Z,40.30
2019-01-21T18:35:45.578Z,43.87
2019-01-21T18:38:15.321Z,51.73
2019-01-21T18:40:44.638Z,39.98
2019-01-21T18:43:13.856Z,46.30
2019-01-21T18:45:44.481Z,49.25
2019-01-21T18:48:14.355Z,49.45
2019-01-21T18:50:43.740Z,58.45
2019-01-21T18:53:13.022Z,59.42
2019-01-21T18:55:42.617Z,57.33
2019-01-21T18:58:11.930Z,54.10
2019-01-21T19:00:41.228Z,54.05
2019-01-21T19:03:10.533Z,64.37
2019-01-21T19:05:39.836Z,57.10
2019-01-21T19:08:09.141Z,57.58
2019-01-21T19:10:38.783Z,58.45
2019-01-21T19:13:10.389Z,56.45
2019-01-21T19:15:39.661Z,56.18
2019-01-21T19:18:09.275Z,57.73
2019-01-21T19:20:38.576Z,54.48
2019-01-21T19:23:08.767Z,59.73
2019-01-21T19:25:38.050Z,73.80
2019-01-21T19:28:07.436Z,65.30
2019-01-21T19:30:37.051Z,67.80
2019-01-21T19:33:06.457Z,64.30
2019-01-21T19:35:37.560Z,68.15
2019-01-21T19:38:07.481Z,70.45
2019-01-21T19:40:37.811Z,71.82
2019-01-21T19:43:08.462Z,66.92
2019-01-21T19:45:37.879Z,72.22
2019-01-21T19:48:08.010Z,78.15
2019-01-21T19:50:37.782Z,87.20
2019-01-21T19:53:07.430Z,76.40
2019-01-21T19:55:41.450Z,76.87
2019-01-21T19:58:12.226Z,81.02
2019-01-21T20:00:43.686Z,91.72
2019-01-21T20:03:12.974Z,111.17
2019-01-21T20:05:42.300Z,193.43
2019-01-21T20:08:12.212Z,157.12
2019-01-21T20:10:43.806Z,155.65
2019-01-21T20:13:13.987Z,164.55
2019-01-21T20:15:43.596Z,152.80
2019-01-21T20:18:14.180Z,156.93
2019-01-21T20:20:44.361Z,108.85
2019-01-21T20:23:13.987Z,104.15
2019-01-21T20:25:44.644Z,84.03
2019-01-21T20:28:15.367Z,87.12
2019-01-21T20:30:45.780Z,76.30
2019-01-21T20:33:15.961Z,66.53
2019-01-21T20:35:45.324Z,70.42
2019-01-21T20:38:14.680Z,86.05
2019-01-21T20:40:46.066Z,75.83
2019-01-21T20:43:16.227Z,81.82
2019-01-21T20:45:45.836Z,64.53
2019-01-21T20:48:15.134Z,71.97
2019-01-21T20:50:44.355Z,81.20
2019-01-21T20:53:14.263Z,77.17
2019-01-21T20:55:44.346Z,83.12
2019-01-21T20:58:16.779Z,85.35
2019-01-21T21:00:50.644Z,96.15
2019-01-21T21:03:20.029Z,103.95
2019-01-21T21:05:51.438Z,89.83
2019-01-21T21:08:24.022Z,84.15
2019-01-21T21:10:53.774Z,80.38
2019-01-21T21:13:22.992Z,83.50
2019-01-21T21:15:52.338Z,97.30
2019-01-21T21:18:21.639Z,126.72
2019-01-21T21:20:50.940Z,138.72
2019-01-21T21:23:20.257Z,109.52
2019-01-21T21:25:49.607Z,96.90
2019-01-21T21:28:21.887Z,86.30
2019-01-21T21:30:51.550Z,79.72
2019-01-21T21:33:20.929Z,83.97
2019-01-21T21:35:50.599Z,74.75
2019-01-21T21:38:19.940Z,73.67
2019-01-21T21:40:49.144Z,84.77
2019-01-21T21:43:18.816Z,73.42
2019-01-21T21:45:48.348Z,63.23
2019-01-21T21:48:17.600Z,71.20
2019-01-21T21:50:46.894Z,74.62
2019-01-21T21:53:16.130Z,64.77
2019-01-21T21:55:45.583Z,60.75
2019-01-21T21:58:14.816Z,69.60
2019-01-21T22:00:44.051Z,70.67
2019-01-21T22:03:13.379Z,64.77
2019-01-21T22:05:42.546Z,62.93
2019-01-21T22:08:11.709Z,66.72
2019-01-21T22:10:40.934Z,65.32
2019-01-21T22:13:10.071Z,65.05
2019-01-21T22:15:39.314Z,55.20
2019-01-21T22:18:08.557Z,65.32
2019-01-21T22:20:37.783Z,69.90
2019-01-21T22:23:07.050Z,62.60
2019-01-21T22:25:36.834Z,68.92
2019-01-21T22:28:05.954Z,65.87
2019-01-21T22:30:35.422Z,62.70
2019-01-21T22:33:04.632Z,66.12
2019-01-21T22:35:34.010Z,63.50
2019-01-21T22:38:04.385Z,67.90
2019-01-21T22:40:33.494Z,61.42
2019-01-21T22:43:02.755Z,61.83
2019-01-21T22:45:31.888Z,68.25
2019-01-21T22:48:01.257Z,72.37
2019-01-21T22:50:30.351Z,71.40
2019-01-21T22:52:59.431Z,59.53
2019-01-21T22:55:28.557Z,65.50
2019-01-21T22:57:59.215Z,68.85
2019-01-21T23:00:43.791Z,67.58
2019-01-21T23:03:15.254Z,59.85
2019-01-21T23:05:44.882Z,69.58
2019-01-21T23:08:14.088Z,66.65
2019-01-21T23:10:43.208Z,78.28
2019-01-21T23:13:12.325Z,73.10
2019-01-21T23:15:41.428Z,83.20
2019-01-21T23:18:10.707Z,75.85
2019-01-21T23:20:39.808Z,75.42
2019-01-21T23:23:09.287Z,76.70
2019-01-21T23:25:38.467Z,81.63
2019-01-21T23:28:09.643Z,75.72
2019-01-21T23:30:38.808Z,82.82
2019-01-21T23:33:07.987Z,85.05
2019-01-21T23:35:37.461Z,87.02
2019-01-21T23:38:06.564Z,82.53
2019-01-21T23:40:35.674Z,87.97
2019-01-21T23:43:04.747Z,90.47
2019-01-21T23:45:33.925Z,80.97
2019-01-21T23:48:03.010Z,87.27
2019-01-21T23:50:32.073Z,87.12
2019-01-21T23:53:01.139Z,93.65
2019-01-21T23:55:30.608Z,89.07
2019-01-21T23:57:59.701Z,87.40
